createdAt,value
2018-07-25T00:00:55.884Z,3.30
2018-07-25T00:03:24.560Z,5.13
2018-07-25T00:05:52.845Z,4.63
2018-07-25T00:08:21.095Z,3.37
2018-07-25T00:10:53.361Z,3.10
2018-07-25T00:13:36.584Z,3.33
2018-07-25T00:16:04.830Z,3.40
2018-07-25T00:18:33.097Z,3.53
2018-07-25T00:21:01.341Z,2.97
2018-07-25T00:23:31.134Z,3.43
2018-07-25T00:25:59.423Z,4.20
2018-07-25T00:28:27.671Z,3.37
2018-07-25T00:30:55.954Z,3.70
2018-07-25T00:33:24.267Z,3.30
2018-07-25T00:35:59.008Z,3.40
2018-07-25T00:38:27.278Z,5.47
2018-07-25T00:40:55.625Z,3.17
2018-07-25T00:43:23.892Z,3.60
2018-07-25T00:45:52.173Z,4.33
2018-07-25T00:48:20.439Z,3.43
2018-07-25T00:50:48.677Z,3.47
2018-07-25T00:53:16.948Z,3.00
2018-07-25T00:55:45.218Z,4.07
2018-07-25T00:58:13.517Z,3.37
2018-07-25T01:00:41.801Z,3.10
2018-07-25T01:03:10.060Z,3.57
2018-07-25T01:05:38.511Z,3.57
2018-07-25T01:08:06.755Z,3.37
2018-07-25T01:10:38.790Z,3.60
2018-07-25T01:13:07.054Z,3.40
2018-07-25T01:15:37.699Z,3.43
2018-07-25T01:18:06.064Z,3.10
2018-07-25T01:20:34.329Z,3.30
2018-07-25T01:23:02.592Z,3.53
2018-07-25T01:25:30.856Z,3.47
2018-07-25T01:27:59.243Z,4.73
2018-07-25T01:30:27.544Z,3.43
2018-07-25T01:32:55.786Z,3.13
2018-07-25T01:35:24.088Z,3.43
2018-07-25T01:37:52.472Z,3.97
2018-07-25T01:40:20.740Z,4.03
2018-07-25T01:42:48.988Z,3.17
2018-07-25T01:45:17.294Z,3.77
2018-07-25T01:47:45.543Z,4.73
2018-07-25T01:50:13.841Z,3.90
2018-07-25T01:52:42.091Z,4.73
2018-07-25T01:55:10.460Z,4.00
2018-07-25T01:57:39.161Z,3.93
2018-07-25T02:00:07.419Z,4.33
2018-07-25T02:02:35.683Z,3.93
2018-07-25T02:05:03.932Z,5.30
2018-07-25T02:07:32.212Z,3.83
2018-07-25T02:10:00.443Z,5.03
2018-07-25T02:12:28.707Z,3.97
2018-07-25T02:14:56.948Z,4.20
2018-07-25T02:17:25.219Z,3.73
2018-07-25T02:19:53.483Z,4.40
2018-07-25T02:22:21.771Z,4.20
2018-07-25T02:24:50.019Z,3.60
2018-07-25T02:27:18.274Z,4.40
2018-07-25T02:29:46.952Z,5.87
2018-07-25T02:32:15.177Z,4.27
2018-07-25T02:34:43.415Z,3.70
2018-07-25T02:37:11.756Z,4.23
2018-07-25T02:39:42.421Z,4.00
2018-07-25T02:42:10.715Z,3.90
2018-07-25T02:44:38.959Z,4.27
2018-07-25T02:47:06.989Z,4.90
2018-07-25T02:49:35.222Z,3.90
2018-07-25T02:52:03.471Z,4.67
2018-07-25T02:54:31.724Z,3.77
2018-07-25T02:57:00.009Z,4.87
2018-07-25T02:59:29.862Z,3.67
2018-07-25T03:01:58.121Z,3.67
2018-07-25T03:04:26.380Z,6.87
2018-07-25T03:06:54.619Z,4.90
2018-07-25T03:09:22.851Z,5.83
2018-07-25T03:11:51.114Z,3.53
2018-07-25T03:14:19.364Z,5.77
2018-07-25T03:16:47.675Z,3.83
2018-07-25T03:19:15.901Z,5.67
2018-07-25T03:21:44.277Z,3.93
2018-07-25T03:24:12.545Z,4.13
2018-07-25T03:26:40.755Z,5.63
2018-07-25T03:29:09.024Z,4.00
2018-07-25T03:31:39.445Z,4.33
2018-07-25T03:34:09.844Z,3.93
2018-07-25T03:36:38.092Z,3.60
2018-07-25T03:39:07.186Z,4.60
2018-07-25T03:41:35.402Z,4.70
2018-07-25T03:44:03.721Z,3.83
2018-07-25T03:46:31.965Z,4.67
2018-07-25T03:49:00.177Z,4.43
2018-07-25T03:51:28.468Z,6.73
2018-07-25T03:53:56.773Z,7.27
2018-07-25T03:56:25.057Z,3.53
2018-07-25T03:58:53.340Z,4.00
2018-07-25T04:01:21.632Z,5.80
2018-07-25T04:03:49.920Z,4.23
2018-07-25T04:06:18.156Z,4.90
2018-07-25T04:08:46.434Z,6.20
2018-07-25T04:11:14.649Z,4.23
2018-07-25T04:13:46.041Z,3.50
2018-07-25T04:16:14.314Z,3.97
2018-07-25T04:18:42.596Z,3.93
2018-07-25T04:21:10.922Z,5.97
2018-07-25T04:23:39.213Z,4.93
2018-07-25T04:26:07.487Z,4.63
2018-07-25T04:28:35.751Z,4.33
2018-07-25T04:31:04.040Z,4.67
2018-07-25T04:33:32.298Z,4.70
2018-07-25T04:36:00.575Z,4.97
2018-07-25T04:38:28.820Z,4.83
2018-07-25T04:40:57.075Z,4.50
2018-07-25T04:43:25.316Z,6.50
2018-07-25T04:45:53.597Z,4.30
2018-07-25T04:48:21.843Z,5.03
2018-07-25T04:50:50.076Z,6.17
2018-07-25T04:53:18.307Z,6.23
2018-07-25T04:55:49.276Z,4.77
2018-07-25T04:58:17.540Z,5.10
2018-07-25T05:00:45.774Z,4.73
2018-07-25T05:03:14.038Z,4.70
2018-07-25T05:05:44.621Z,4.73
2018-07-25T05:08:12.875Z,4.43
2018-07-25T05:10:41.121Z,4.93
2018-07-25T05:13:09.417Z,4.87
2018-07-25T05:15:37.691Z,7.53
2018-07-25T05:18:05.949Z,5.43
2018-07-25T05:20:34.203Z,4.43
2018-07-25T05:23:02.504Z,4.40
2018-07-25T05:25:30.752Z,4.90
2018-07-25T05:27:59.025Z,5.70
2018-07-25T05:30:27.337Z,4.90
2018-07-25T05:32:55.640Z,4.80
2018-07-25T05:35:23.903Z,4.90
2018-07-25T05:37:52.134Z,5.40
2018-07-25T05:40:20.436Z,6.87
2018-07-25T05:42:48.648Z,5.47
2018-07-25T05:45:16.911Z,5.07
2018-07-25T05:47:49.259Z,5.47
2018-07-25T05:50:17.543Z,5.27
2018-07-25T05:52:45.882Z,6.03
2018-07-25T05:55:14.103Z,5.03
2018-07-25T05:57:42.356Z,4.63
2018-07-25T06:00:10.647Z,5.70
2018-07-25T06:02:38.903Z,5.40
2018-07-25T06:05:07.335Z,6.37
2018-07-25T06:07:35.660Z,6.40
2018-07-25T06:10:04.022Z,6.20
2018-07-25T06:12:32.347Z,5.90
2018-07-25T06:15:00.589Z,6.50
2018-07-25T06:17:28.831Z,5.80
2018-07-25T06:19:57.108Z,7.27
2018-07-25T06:22:25.367Z,6.27
2018-07-25T06:24:53.619Z,7.23
2018-07-25T06:27:21.922Z,6.53
2018-07-25T06:29:51.768Z,6.87
2018-07-25T06:32:19.755Z,6.70
2018-07-25T06:34:48.042Z,6.93
2018-07-25T06:37:16.280Z,6.77
2018-07-25T06:39:44.610Z,9.37
2018-07-25T06:42:12.878Z,7.97
2018-07-25T06:44:41.162Z,8.03
2018-07-25T06:47:09.537Z,6.53
2018-07-25T06:49:37.796Z,8.70
2018-07-25T06:52:06.311Z,6.93
2018-07-25T06:54:34.601Z,8.23
2018-07-25T06:57:02.852Z,7.20
2018-07-25T06:59:31.792Z,6.90
2018-07-25T07:02:00.146Z,10.17
2018-07-25T07:04:28.440Z,7.20
2018-07-25T07:06:56.739Z,7.67
2018-07-25T07:09:24.706Z,8.33
2018-07-25T07:11:52.979Z,8.97
2018-07-25T07:14:21.246Z,7.67
2018-07-25T07:16:49.543Z,7.20
2018-07-25T07:19:17.792Z,5.63
2018-07-25T07:21:46.139Z,7.00
2018-07-25T07:24:14.432Z,6.53
2018-07-25T07:26:42.690Z,5.67
2018-07-25T07:29:11.016Z,7.20
2018-07-25T07:31:39.291Z,7.13
2018-07-25T07:34:08.488Z,5.97
2018-07-25T07:36:36.790Z,8.00
2018-07-25T07:39:07.300Z,6.30
2018-07-25T07:41:35.543Z,7.20
2018-07-25T07:44:03.988Z,7.63
2018-07-25T07:46:32.283Z,7.40
2018-07-25T07:49:00.546Z,8.00
2018-07-25T07:51:28.909Z,7.20
2018-07-25T07:53:57.244Z,11.87
2018-07-25T07:56:25.492Z,9.20
2018-07-25T07:58:54.279Z,7.30
2018-07-25T08:01:22.899Z,6.87
2018-07-25T08:03:51.458Z,6.60
2018-07-25T08:06:20.074Z,7.77
2018-07-25T08:08:49.395Z,7.67
2018-07-25T08:11:19.083Z,7.60
2018-07-25T08:13:48.247Z,6.67
2018-07-25T08:16:17.259Z,6.80
2018-07-25T08:18:45.504Z,6.73
2018-07-25T08:21:14.348Z,7.10
2018-07-25T08:23:43.536Z,6.60
2018-07-25T08:26:11.893Z,7.30
2018-07-25T08:28:40.156Z,7.27
2018-07-25T08:31:08.739Z,6.20
2018-07-25T08:33:37.018Z,5.07
2018-07-25T08:36:05.315Z,5.73
2018-07-25T08:38:41.251Z,5.73
2018-07-25T08:41:09.568Z,6.20
2018-07-25T08:43:38.951Z,6.13
2018-07-25T08:46:08.329Z,7.03
2018-07-25T08:48:36.806Z,5.83
2018-07-25T08:51:05.092Z,6.03
2018-07-25T08:53:33.829Z,5.77
2018-07-25T08:56:02.108Z,5.90
2018-07-25T08:58:31.340Z,5.30
2018-07-25T09:01:00.098Z,5.50
2018-07-25T09:03:28.353Z,7.13
2018-07-25T09:05:56.705Z,5.83
2018-07-25T09:08:24.980Z,5.13
2018-07-25T09:10:53.211Z,5.27
2018-07-25T09:13:21.462Z,6.07
2018-07-25T09:15:49.738Z,5.57
2018-07-25T09:18:18.015Z,5.57
2018-07-25T09:20:46.294Z,5.40
2018-07-25T09:23:14.580Z,5.73
2018-07-25T09:25:42.945Z,5.60
2018-07-25T09:28:11.204Z,6.03
2018-07-25T09:30:39.512Z,6.40
2018-07-25T09:33:07.769Z,4.47
2018-07-25T09:35:36.108Z,4.83
2018-07-25T09:38:04.605Z,4.60
2018-07-25T09:40:32.849Z,5.50
2018-07-25T09:43:01.185Z,4.90
2018-07-25T09:45:29.453Z,4.20
2018-07-25T09:48:04.576Z,4.33
2018-07-25T09:50:32.859Z,4.07
2018-07-25T09:53:01.186Z,4.80
2018-07-25T09:55:29.374Z,5.43
2018-07-25T09:57:57.742Z,4.50
2018-07-25T10:00:31.447Z,4.20
2018-07-25T10:02:59.725Z,5.00
2018-07-25T10:05:28.038Z,6.87
2018-07-25T10:07:56.280Z,4.73
2018-07-25T10:10:24.557Z,5.43
2018-07-25T10:12:52.799Z,5.80
2018-07-25T10:15:21.124Z,4.23
2018-07-25T10:17:49.459Z,4.17
2018-07-25T10:20:17.675Z,3.90
2018-07-25T10:22:46.110Z,4.23
2018-07-25T10:25:14.373Z,3.87
2018-07-25T10:27:42.685Z,4.17
2018-07-25T10:30:10.979Z,4.00
2018-07-25T10:32:39.243Z,5.33
2018-07-25T10:35:08.414Z,4.00
2018-07-25T10:37:36.683Z,5.23
2018-07-25T10:40:05.263Z,3.70
2018-07-25T10:42:33.578Z,3.80
2018-07-25T10:45:01.822Z,4.23
2018-07-25T10:47:30.133Z,5.17
2018-07-25T10:49:58.398Z,4.40
2018-07-25T10:52:26.671Z,3.30
2018-07-25T10:54:54.967Z,3.70
2018-07-25T10:57:23.260Z,3.80
2018-07-25T10:59:51.948Z,3.97
2018-07-25T11:02:20.232Z,3.50
2018-07-25T11:04:48.519Z,8.03
2018-07-25T11:07:16.839Z,3.37
2018-07-25T11:09:45.639Z,3.70
2018-07-25T11:12:13.855Z,3.87
2018-07-25T11:14:42.149Z,3.17
2018-07-25T11:17:10.446Z,3.03
2018-07-25T11:19:38.856Z,4.37
2018-07-25T11:22:07.131Z,6.30
2018-07-25T11:24:35.384Z,2.83
2018-07-25T11:27:03.639Z,2.80
2018-07-25T11:29:33.273Z,3.20
2018-07-25T11:32:01.621Z,2.77
2018-07-25T11:34:29.895Z,3.40
2018-07-25T11:36:58.242Z,3.17
2018-07-25T11:39:26.556Z,2.53
2018-07-25T11:41:54.799Z,2.87
2018-07-25T11:44:23.065Z,2.73
2018-07-25T11:46:51.410Z,2.87
2018-07-25T11:49:19.715Z,2.70
2018-07-25T11:51:48.078Z,4.37
2018-07-25T11:54:16.356Z,3.07
2018-07-25T11:56:44.619Z,3.00
2018-07-25T11:59:13.031Z,3.33
2018-07-25T12:01:41.408Z,4.53
2018-07-25T12:04:09.639Z,2.43
2018-07-25T12:06:37.919Z,3.17
2018-07-25T12:09:08.620Z,3.43
2018-07-25T12:11:41.109Z,3.23
2018-07-25T12:14:09.369Z,2.67
2018-07-25T12:16:37.716Z,2.70
2018-07-25T12:19:05.999Z,5.87
2018-07-25T12:21:34.417Z,2.87
2018-07-25T12:24:02.732Z,2.80
2018-07-25T12:26:31.016Z,3.00
2018-07-25T12:28:59.288Z,2.73
2018-07-25T12:31:27.731Z,2.70
2018-07-25T12:33:56.077Z,2.67
2018-07-25T12:36:24.577Z,2.73
2018-07-25T12:38:52.801Z,3.20
2018-07-25T12:41:21.097Z,2.90
2018-07-25T12:43:55.936Z,2.50
2018-07-25T12:46:24.171Z,3.27
2018-07-25T12:48:52.428Z,2.90
2018-07-25T12:51:21.591Z,3.20
2018-07-25T12:53:49.914Z,2.60
2018-07-25T12:56:18.173Z,3.57
2018-07-25T12:58:46.491Z,2.87
2018-07-25T13:01:14.796Z,2.77
2018-07-25T13:03:43.072Z,2.60
2018-07-25T13:06:11.464Z,3.67
2018-07-25T13:08:39.728Z,6.60
2018-07-25T13:11:07.991Z,3.50
2018-07-25T13:13:37.147Z,2.53
2018-07-25T13:16:05.533Z,2.43
2018-07-25T13:18:33.788Z,2.40
2018-07-25T13:21:02.083Z,4.77
2018-07-25T13:23:30.332Z,2.33
2018-07-25T13:25:59.086Z,2.30
2018-07-25T13:28:27.490Z,2.40
2018-07-25T13:30:55.770Z,2.17
2018-07-25T13:33:24.620Z,1.97
2018-07-25T13:35:52.926Z,2.23
2018-07-25T13:38:21.171Z,2.40
2018-07-25T13:40:49.437Z,3.40
2018-07-25T13:43:22.399Z,3.13
2018-07-25T13:45:50.643Z,3.97
2018-07-25T13:48:18.928Z,3.23
2018-07-25T13:50:47.206Z,5.37
2018-07-25T13:53:15.434Z,3.60
2018-07-25T13:55:43.700Z,4.60
2018-07-25T13:58:12.031Z,2.80
2018-07-25T14:00:40.337Z,5.27
2018-07-25T14:03:08.612Z,3.07
2018-07-25T14:05:36.901Z,2.60
2018-07-25T14:08:05.360Z,2.70
2018-07-25T14:10:33.636Z,2.63
2018-07-25T14:13:01.919Z,2.50
2018-07-25T14:15:30.473Z,2.53
2018-07-25T14:17:58.841Z,2.97
2018-07-25T14:20:27.095Z,4.80
2018-07-25T14:22:55.364Z,2.90
2018-07-25T14:25:27.425Z,3.73
2018-07-25T14:27:55.694Z,2.97
2018-07-25T14:30:24.152Z,2.77
2018-07-25T14:32:52.465Z,2.60
2018-07-25T14:35:22.902Z,2.63
2018-07-25T14:37:51.219Z,4.53
2018-07-25T14:40:19.549Z,2.10
2018-07-25T14:42:47.776Z,2.40
2018-07-25T14:45:16.084Z,2.30
2018-07-25T14:47:44.360Z,3.50
2018-07-25T14:50:12.639Z,2.07
2018-07-25T14:52:40.939Z,2.43
2018-07-25T14:55:09.284Z,2.20
2018-07-25T14:57:37.611Z,2.53
2018-07-25T15:00:06.760Z,2.53
2018-07-25T15:02:35.387Z,1.97
2018-07-25T15:05:03.936Z,2.30
2018-07-25T15:07:32.224Z,1.77
2018-07-25T15:10:00.672Z,2.87
2018-07-25T15:12:34.288Z,1.87
2018-07-25T15:15:02.647Z,2.63
2018-07-25T15:17:30.907Z,2.07
2018-07-25T15:19:59.257Z,2.23
2018-07-25T15:22:27.567Z,2.30
2018-07-25T15:24:55.835Z,2.40
2018-07-25T15:27:24.357Z,2.50
2018-07-25T15:29:52.840Z,2.30
2018-07-25T15:32:21.130Z,2.07
2018-07-25T15:34:49.500Z,2.90
2018-07-25T15:37:17.768Z,1.90
2018-07-25T15:39:46.012Z,2.37
2018-07-25T15:42:14.285Z,1.90
2018-07-25T15:44:42.628Z,4.50
2018-07-25T15:47:11.040Z,1.80
2018-07-25T15:49:39.311Z,3.67
2018-07-25T15:52:07.665Z,1.80
2018-07-25T15:54:36.013Z,2.10
2018-07-25T15:57:04.339Z,2.57
2018-07-25T15:59:38.768Z,2.07
2018-07-25T16:14:18.842Z,2.43
2018-07-25T16:25:46.505Z,1.80
2018-07-25T16:28:14.794Z,1.83
2018-07-25T16:30:43.042Z,1.97
2018-07-25T16:36:08.078Z,1.73
2018-07-25T16:38:36.775Z,1.97
2018-07-25T16:41:17.310Z,1.77
2018-07-25T16:55:57.365Z,2.10
2018-07-25T16:58:25.621Z,1.90
2018-07-25T17:00:53.931Z,2.33
2018-07-25T17:03:22.194Z,3.13
2018-07-25T17:05:50.463Z,2.33
2018-07-25T17:08:18.806Z,2.17
2018-07-25T17:10:47.068Z,2.30
2018-07-25T17:13:15.339Z,2.73
2018-07-25T17:15:43.624Z,4.03
2018-07-25T17:18:11.943Z,2.23
2018-07-25T17:20:40.174Z,1.90
2018-07-25T17:23:08.468Z,4.03
2018-07-25T17:25:37.032Z,2.80
2018-07-25T17:28:05.387Z,2.03
2018-07-25T17:30:33.636Z,2.70
2018-07-25T17:33:01.871Z,3.73
2018-07-25T17:35:30.202Z,1.93
2018-07-25T17:37:58.474Z,2.43
2018-07-25T17:40:26.733Z,4.80
2018-07-25T17:42:54.998Z,2.40
2018-07-25T17:45:23.236Z,2.60
2018-07-25T17:47:51.549Z,2.60
2018-07-25T17:50:19.868Z,2.63
2018-07-25T17:52:48.232Z,2.30
2018-07-25T17:55:16.528Z,2.53
2018-07-25T17:57:44.855Z,2.03
2018-07-25T18:00:13.152Z,3.33
2018-07-25T18:02:41.458Z,2.60
2018-07-25T18:05:10.457Z,2.30
2018-07-25T18:07:40.424Z,2.30
2018-07-25T18:10:08.767Z,2.30
2018-07-25T18:12:37.002Z,2.10
2018-07-25T18:15:06.624Z,2.43
2018-07-25T18:17:38.572Z,2.40
2018-07-25T18:20:07.309Z,3.00
2018-07-25T18:22:35.803Z,3.23
2018-07-25T18:25:04.520Z,2.17
2018-07-25T18:27:32.794Z,2.07
2018-07-25T18:30:01.140Z,2.33
2018-07-25T18:32:29.444Z,2.97
2018-07-25T18:34:57.735Z,3.70
2018-07-25T18:37:25.999Z,2.53
2018-07-25T18:39:54.294Z,2.43
2018-07-25T18:42:22.564Z,3.43
2018-07-25T18:44:50.876Z,2.50
2018-07-25T18:47:19.149Z,2.80
2018-07-25T18:49:47.478Z,3.30
2018-07-25T18:52:15.868Z,2.97
2018-07-25T18:54:44.373Z,3.17
2018-07-25T18:57:12.666Z,2.97
2018-07-25T18:59:41.783Z,2.60
2018-07-25T19:02:10.053Z,2.57
2018-07-25T19:04:38.300Z,3.33
2018-07-25T19:07:06.593Z,2.80
2018-07-25T19:09:34.831Z,3.03
2018-07-25T19:12:03.141Z,2.80
2018-07-25T19:14:36.576Z,2.93
2018-07-25T19:17:04.887Z,3.00
2018-07-25T19:19:33.329Z,3.20
2018-07-25T19:22:01.592Z,4.53
2018-07-25T19:24:29.869Z,3.50
2018-07-25T19:26:58.126Z,2.80
2018-07-25T19:29:27.659Z,2.50
2018-07-25T19:31:55.969Z,2.60
2018-07-25T19:34:24.252Z,2.70
2018-07-25T19:36:52.513Z,3.00
2018-07-25T19:39:20.784Z,3.00
2018-07-25T19:41:49.060Z,2.80
2018-07-25T19:44:17.358Z,3.57
2018-07-25T19:46:45.639Z,3.37
2018-07-25T19:49:13.869Z,2.80
2018-07-25T19:51:43.450Z,3.73
2018-07-25T19:54:11.693Z,2.93
2018-07-25T19:56:39.912Z,3.40
2018-07-25T19:59:08.171Z,3.07
2018-07-25T20:01:36.440Z,2.80
2018-07-25T20:04:04.887Z,4.83
2018-07-25T20:06:33.136Z,5.90
2018-07-25T20:09:01.341Z,4.97
2018-07-25T20:11:29.565Z,3.13
2018-07-25T20:14:03.306Z,3.40
2018-07-25T20:16:31.560Z,3.23
2018-07-25T20:18:59.824Z,3.23
2018-07-25T20:21:28.088Z,3.00
2018-07-25T20:23:56.369Z,4.57
2018-07-25T20:26:24.540Z,2.80
2018-07-25T20:28:52.857Z,2.87
2018-07-25T20:31:20.882Z,3.40
2018-07-25T20:33:49.338Z,3.13
2018-07-25T20:36:17.636Z,5.97
2018-07-25T20:38:45.953Z,3.90
2018-07-25T20:41:14.201Z,2.90
2018-07-25T20:43:42.446Z,5.67
2018-07-25T20:46:10.807Z,3.37
2018-07-25T20:48:39.051Z,3.20
2018-07-25T20:51:07.300Z,5.03
2018-07-25T20:53:35.531Z,3.53
2018-07-25T20:56:03.820Z,3.50
2018-07-25T20:58:32.151Z,3.30
2018-07-25T21:01:00.478Z,2.97
2018-07-25T21:03:28.711Z,3.13
2018-07-25T21:05:56.959Z,5.50
2018-07-25T21:08:25.170Z,2.93
2018-07-25T21:10:53.557Z,3.40
2018-07-25T21:13:21.816Z,3.80
2018-07-25T21:15:50.545Z,3.07
2018-07-25T21:18:18.793Z,3.13
2018-07-25T21:20:47.031Z,4.17
2018-07-25T21:23:15.346Z,3.93
2018-07-25T21:25:43.612Z,3.17
2018-07-25T21:28:11.911Z,3.53
2018-07-25T21:30:40.139Z,3.87
2018-07-25T21:33:08.391Z,2.90
2018-07-25T21:35:36.664Z,5.40
2018-07-25T21:38:04.982Z,3.40
2018-07-25T21:40:33.272Z,3.67
2018-07-25T21:43:01.556Z,3.80
2018-07-25T21:45:29.864Z,3.87
2018-07-25T21:47:58.214Z,5.07
2018-07-25T21:50:26.497Z,3.40
2018-07-25T21:52:54.934Z,3.30
2018-07-25T21:55:23.303Z,3.80
2018-07-25T21:57:53.146Z,3.57
2018-07-25T22:00:21.422Z,2.80
2018-07-25T22:02:49.728Z,4.77
2018-07-25T22:05:17.998Z,3.43
2018-07-25T22:07:46.865Z,3.00
2018-07-25T22:10:15.122Z,2.90
2018-07-25T22:12:43.410Z,4.20
2018-07-25T22:15:12.031Z,3.00
2018-07-25T22:17:40.258Z,3.37
2018-07-25T22:20:11.039Z,3.27
2018-07-25T22:22:39.444Z,3.90
2018-07-25T22:25:08.428Z,2.80
2018-07-25T22:27:37.016Z,3.13
2018-07-25T22:30:05.474Z,2.80
2018-07-25T22:35:08.455Z,4.53
2018-07-25T22:37:36.684Z,3.17
2018-07-25T22:40:05.379Z,3.33
2018-07-25T22:42:33.612Z,3.13
2018-07-25T22:45:01.859Z,3.30
2018-07-25T22:47:30.109Z,4.27
2018-07-25T22:49:58.368Z,4.63
2018-07-25T22:52:26.625Z,2.70
2018-07-25T22:54:54.876Z,3.00
2018-07-25T22:57:23.095Z,3.20
2018-07-25T22:59:51.478Z,2.73
2018-07-25T23:02:19.756Z,2.93
2018-07-25T23:04:48.028Z,2.97
2018-07-25T23:07:16.236Z,3.10
2018-07-25T23:09:44.611Z,2.73
2018-07-25T23:12:12.893Z,2.93
2018-07-25T23:14:41.220Z,4.93
2018-07-25T23:17:09.408Z,2.53
2018-07-25T23:19:37.635Z,3.17
2018-07-25T23:22:05.948Z,3.50
2018-07-25T23:24:34.201Z,4.67
2018-07-25T23:27:02.429Z,2.80
2018-07-25T23:29:32.365Z,3.50
2018-07-25T23:32:01.917Z,3.40
2018-07-25T23:34:30.154Z,3.77
2018-07-25T23:36:58.452Z,2.90
2018-07-25T23:39:26.665Z,3.73
2018-07-25T23:41:54.907Z,3.20
2018-07-25T23:44:23.163Z,2.97
2018-07-25T23:46:51.435Z,3.17
2018-07-25T23:49:19.668Z,5.10
2018-07-25T23:51:47.953Z,3.20
2018-07-25T23:54:16.203Z,3.57
2018-07-25T23:56:44.454Z,3.10
2018-07-25T23:59:16.596Z,3.20
